createdAt,value
2023-05-10T00:03:36.538Z,13.76
2023-05-10T00:07:52.889Z,13.59
2023-05-10T00:12:09.229Z,13.60
2023-05-10T00:16:25.688Z,13.20
2023-05-10T00:20:42.043Z,13.64
2023-05-10T00:24:58.595Z,13.18
2023-05-10T00:29:14.922Z,13.73
2023-05-10T00:33:31.171Z,13.44
2023-05-10T00:37:47.658Z,13.71
2023-05-10T00:42:05.385Z,13.75
2023-05-10T00:46:21.787Z,13.63
2023-05-10T00:50:38.280Z,13.73
2023-05-10T00:54:54.826Z,13.74
2023-05-10T00:59:11.324Z,13.87
2023-05-10T01:03:27.854Z,13.78
2023-05-10T01:07:44.159Z,13.75
2023-05-10T01:12:01.035Z,13.62
2023-05-10T01:16:17.584Z,14.03
2023-05-10T01:20:41.377Z,13.97
2023-05-10T01:25:16.436Z,13.58
2023-05-10T01:30:15.658Z,13.57
2023-05-10T01:34:42.714Z,13.11
2023-05-10T01:39:21.694Z,13.38
2023-05-10T01:44:16.034Z,13.25
2023-05-10T01:48:32.730Z,13.19
2023-05-10T01:52:55.970Z,13.20
2023-05-10T01:57:15.375Z,13.01
2023-05-10T02:01:31.934Z,12.77
2023-05-10T02:05:49.720Z,12.89
2023-05-10T02:10:10.578Z,12.94
2023-05-10T02:14:28.232Z,12.80
2023-05-10T02:18:45.330Z,12.58
2023-05-10T02:23:02.939Z,12.35
2023-05-10T02:27:21.119Z,12.56
2023-05-10T02:31:40.113Z,12.56
2023-05-10T02:35:57.171Z,12.64
2023-05-10T02:40:14.275Z,12.55
2023-05-10T02:44:32.327Z,12.72
2023-05-10T02:48:48.671Z,12.84
2023-05-10T02:53:31.760Z,12.91
2023-05-10T02:57:55.936Z,13.03
2023-05-10T03:02:13.582Z,13.07
2023-05-10T03:06:29.938Z,12.88
2023-05-10T03:11:04.828Z,12.82
2023-05-10T03:15:29.837Z,13.10
2023-05-10T03:19:54.582Z,13.09
2023-05-10T03:24:13.564Z,13.09
2023-05-10T03:28:30.103Z,12.99
2023-05-10T03:32:46.669Z,13.20
2023-05-10T03:37:03.018Z,13.20
2023-05-10T03:41:19.330Z,13.09
2023-05-10T03:45:36.032Z,13.15
2023-05-10T03:49:52.330Z,13.30
2023-05-10T03:54:08.673Z,13.40
2023-05-10T03:58:24.973Z,12.94
2023-05-10T04:02:41.669Z,13.03
2023-05-10T04:06:58.130Z,12.98
2023-05-10T04:11:15.364Z,13.03
2023-05-10T04:15:31.630Z,12.99
2023-05-10T04:19:47.901Z,12.94
2023-05-10T04:24:04.450Z,12.64
2023-05-10T04:28:20.740Z,13.16
2023-05-10T04:32:37.465Z,13.07
2023-05-10T04:36:53.838Z,13.30
2023-05-10T04:41:11.515Z,13.18
2023-05-10T04:45:27.832Z,13.21
2023-05-10T04:49:44.179Z,13.11
2023-05-10T04:54:06.206Z,12.92
2023-05-10T04:58:23.203Z,12.98
2023-05-10T05:02:39.897Z,13.46
2023-05-10T05:06:56.453Z,13.23
2023-05-10T05:11:12.753Z,13.49
2023-05-10T05:15:29.218Z,13.82
2023-05-10T05:19:45.546Z,14.04
2023-05-10T05:24:02.047Z,13.70
2023-05-10T05:28:18.292Z,14.02
2023-05-10T05:32:35.688Z,14.06
2023-05-10T05:36:52.330Z,14.47
2023-05-10T05:41:08.599Z,14.45
2023-05-10T05:45:24.887Z,14.56
2023-05-10T05:49:41.340Z,14.70
2023-05-10T05:53:57.613Z,14.37
2023-05-10T05:58:13.873Z,14.90
2023-05-10T06:02:30.203Z,14.56
2023-05-10T06:06:46.920Z,14.81
2023-05-10T06:11:03.448Z,15.37
2023-05-10T06:15:19.798Z,15.73
2023-05-10T06:19:36.122Z,15.79
2023-05-10T06:23:52.475Z,15.79
2023-05-10T06:28:08.891Z,15.24
2023-05-10T06:32:25.181Z,15.99
2023-05-10T06:36:41.460Z,15.84
2023-05-10T06:40:58.388Z,16.36
2023-05-10T06:45:16.205Z,16.18
2023-05-10T06:49:32.725Z,16.38
2023-05-10T06:53:49.298Z,16.32
2023-05-10T06:58:05.957Z,16.26
2023-05-10T07:02:22.334Z,16.82
2023-05-10T07:06:38.637Z,16.90
2023-05-10T07:10:54.898Z,16.98
2023-05-10T07:15:11.466Z,17.24
2023-05-10T07:19:27.826Z,17.44
2023-05-10T07:23:45.248Z,16.96
2023-05-10T07:28:01.633Z,17.11
2023-05-10T07:32:17.953Z,16.99
2023-05-10T07:36:34.365Z,17.01
2023-05-10T07:40:50.574Z,17.33
2023-05-10T07:45:07.484Z,17.85
2023-05-10T07:49:25.586Z,17.74
2023-05-10T07:53:41.882Z,18.19
2023-05-10T07:57:58.143Z,17.85
2023-05-10T08:02:14.490Z,17.61
2023-05-10T08:06:31.410Z,17.58
2023-05-10T08:10:47.826Z,17.76
2023-05-10T08:15:04.594Z,17.98
2023-05-10T08:19:22.497Z,17.74
2023-05-10T08:23:38.882Z,17.71
2023-05-10T08:27:55.166Z,17.73
2023-05-10T08:32:11.737Z,17.45
2023-05-10T08:36:28.883Z,18.26
2023-05-10T08:40:46.042Z,18.59
2023-05-10T08:45:03.473Z,18.91
2023-05-10T08:49:21.258Z,18.99
2023-05-10T08:53:38.230Z,19.06
2023-05-10T08:57:54.737Z,19.35
2023-05-10T09:02:13.139Z,18.96
2023-05-10T09:06:29.984Z,19.06
2023-05-10T09:10:48.727Z,19.46
2023-05-10T09:15:06.269Z,18.91
2023-05-10T09:19:22.643Z,19.67
2023-05-10T09:23:38.881Z,19.66
2023-05-10T09:27:56.217Z,19.94
2023-05-10T09:32:13.918Z,19.94
2023-05-10T09:36:30.308Z,20.39
2023-05-10T09:40:57.691Z,20.10
2023-05-10T09:45:14.068Z,20.10
2023-05-10T09:49:30.996Z,20.31
2023-05-10T09:53:47.552Z,20.11
2023-05-10T09:58:04.068Z,20.35
2023-05-10T10:02:20.721Z,20.68
2023-05-10T10:06:41.148Z,20.08
2023-05-10T10:10:57.456Z,20.51
2023-05-10T10:15:16.573Z,20.49
2023-05-10T10:19:37.287Z,20.57
2023-05-10T10:23:54.456Z,20.21
2023-05-10T10:28:51.281Z,20.62
2023-05-10T10:33:48.099Z,20.38
2023-05-10T10:38:04.846Z,20.80
2023-05-10T10:42:51.058Z,21.08
2023-05-10T10:47:13.418Z,21.25
2023-05-10T10:51:32.465Z,21.89
2023-05-10T10:55:49.670Z,21.63
2023-05-10T11:00:25.847Z,22.33
2023-05-10T11:04:47.805Z,22.41
2023-05-10T11:09:11.424Z,22.38
2023-05-10T11:13:32.050Z,23.01
2023-05-10T11:17:53.302Z,21.89
2023-05-10T11:22:16.045Z,22.68
2023-05-10T11:26:38.891Z,23.24
2023-05-10T11:30:55.885Z,23.21
2023-05-10T11:35:13.164Z,23.62
2023-05-10T11:39:31.049Z,23.45
2023-05-10T11:43:53.207Z,23.54
2023-05-10T11:48:09.537Z,23.35
2023-05-10T11:52:26.160Z,23.29
2023-05-10T11:56:42.605Z,24.32
2023-05-10T12:01:00.229Z,24.33
2023-05-10T12:05:17.215Z,24.11
2023-05-10T12:09:43.167Z,23.56
2023-05-10T12:14:00.226Z,23.71
2023-05-10T12:18:23.876Z,24.53
2023-05-10T12:22:40.173Z,25.07
2023-05-10T12:31:30.131Z,24.45
2023-05-10T12:35:50.023Z,24.25
2023-05-10T12:40:09.302Z,23.34
2023-05-10T12:44:25.735Z,23.12
2023-05-10T12:48:43.109Z,23.29
2023-05-10T12:52:59.215Z,22.66
2023-05-10T12:57:16.049Z,23.05
2023-05-10T13:01:32.348Z,22.98
2023-05-10T13:05:48.607Z,22.77
2023-05-10T13:10:05.061Z,23.17
2023-05-10T13:14:24.388Z,23.32
2023-05-10T13:18:40.640Z,24.00
2023-05-10T13:22:56.815Z,24.15
2023-05-10T13:27:13.127Z,23.78
2023-05-10T13:31:29.534Z,23.61
2023-05-10T13:35:46.362Z,22.49
2023-05-10T13:40:03.054Z,22.53
2023-05-10T13:44:19.269Z,22.22
2023-05-10T13:48:36.864Z,21.66
2023-05-10T13:52:54.970Z,21.99
2023-05-10T13:57:13.018Z,21.20
2023-05-10T14:01:29.213Z,21.28
2023-05-10T14:05:46.406Z,21.29
2023-05-10T14:10:02.658Z,21.66
2023-05-10T14:14:18.873Z,21.78
2023-05-10T14:18:35.285Z,22.31
2023-05-10T14:22:51.599Z,22.32
2023-05-10T14:27:08.178Z,22.94
2023-05-10T14:31:25.908Z,22.93
2023-05-10T14:35:42.259Z,23.79
2023-05-10T14:39:58.672Z,23.81
2023-05-10T14:44:16.534Z,22.83
2023-05-10T14:48:32.732Z,21.29
2023-05-10T14:52:49.076Z,22.15
2023-05-10T14:57:05.276Z,21.88
2023-05-10T15:01:21.553Z,21.68
2023-05-10T15:05:38.872Z,22.02
2023-05-10T15:09:55.403Z,22.02
2023-05-10T15:14:11.547Z,22.50
2023-05-10T15:18:27.756Z,22.00
2023-05-10T15:22:43.945Z,22.40
2023-05-10T15:27:00.140Z,22.06
2023-05-10T15:31:16.471Z,22.04
2023-05-10T15:35:32.879Z,21.01
2023-05-10T15:39:49.025Z,21.66
2023-05-10T15:44:05.248Z,21.27
2023-05-10T15:48:21.453Z,21.39
2023-05-10T15:52:37.890Z,21.13
2023-05-10T15:56:55.262Z,20.70
2023-05-10T16:01:14.655Z,21.11
2023-05-10T16:05:33.856Z,20.77
2023-05-10T16:09:50.194Z,20.68
2023-05-10T16:14:07.357Z,20.60
2023-05-10T16:18:24.128Z,20.62
2023-05-10T16:22:40.790Z,20.64
2023-05-10T16:26:57.130Z,20.15
2023-05-10T16:31:14.134Z,20.17
2023-05-10T16:35:30.799Z,20.45
2023-05-10T16:39:47.136Z,20.32
2023-05-10T16:44:04.106Z,20.33
2023-05-10T16:48:20.426Z,19.99
2023-05-10T16:52:37.403Z,20.16
2023-05-10T16:56:53.691Z,20.14
2023-05-10T17:01:10.254Z,19.78
2023-05-10T17:05:27.338Z,20.02
2023-05-10T17:09:44.325Z,19.71
2023-05-10T17:14:01.637Z,19.65
2023-05-10T17:18:18.375Z,19.67
2023-05-10T17:22:34.729Z,19.61
2023-05-10T17:26:51.042Z,19.78
2023-05-10T17:31:07.383Z,19.63
2023-05-10T17:35:24.247Z,19.41
2023-05-10T17:39:40.536Z,19.19
2023-05-10T17:43:56.775Z,19.36
2023-05-10T17:48:13.676Z,19.22
2023-05-10T17:52:32.106Z,19.24
2023-05-10T17:56:50.533Z,18.94
2023-05-10T18:01:06.935Z,18.90
2023-05-10T18:05:23.748Z,18.99
2023-05-10T18:09:40.386Z,18.60
2023-05-10T18:13:56.713Z,18.54
2023-05-10T18:18:12.981Z,18.29
2023-05-10T18:22:29.283Z,18.38
2023-05-10T18:26:45.604Z,18.29
2023-05-10T18:31:02.060Z,18.15
2023-05-10T18:35:18.601Z,18.43
2023-05-10T18:39:36.800Z,17.90
2023-05-10T18:43:53.712Z,17.93
2023-05-10T18:48:10.265Z,17.86
2023-05-10T18:52:26.685Z,17.87
2023-05-10T18:56:45.426Z,17.86
2023-05-10T19:01:01.731Z,17.64
2023-05-10T19:05:18.545Z,17.55
2023-05-10T19:09:35.134Z,17.37
2023-05-10T19:13:51.646Z,17.49
2023-05-10T19:18:09.783Z,17.34
2023-05-10T19:22:44.934Z,17.40
2023-05-10T19:27:03.974Z,17.46
2023-05-10T19:31:21.265Z,17.10
2023-05-10T19:35:37.706Z,17.05
2023-05-10T19:39:54.474Z,17.10
2023-05-10T19:44:10.831Z,16.94
2023-05-10T19:48:27.609Z,17.06
2023-05-10T19:52:45.093Z,16.65
2023-05-10T19:57:01.357Z,16.73
2023-05-10T20:01:17.658Z,16.67
2023-05-10T20:05:34.030Z,16.68
2023-05-10T20:09:50.372Z,16.55
2023-05-10T20:14:06.789Z,16.47
2023-05-10T20:18:23.262Z,16.49
2023-05-10T20:22:40.128Z,16.43
2023-05-10T20:26:57.190Z,16.55
2023-05-10T20:31:13.508Z,16.47
2023-05-10T20:35:29.801Z,16.41
2023-05-10T20:39:47.035Z,16.26
2023-05-10T20:44:06.178Z,16.13
2023-05-10T20:48:22.525Z,16.27
2023-05-10T20:52:38.937Z,16.17
2023-05-10T20:56:55.195Z,16.07
2023-05-10T21:01:11.610Z,16.02
2023-05-10T21:05:28.067Z,16.02
2023-05-10T21:09:44.620Z,16.23
2023-05-10T21:14:01.030Z,16.41
2023-05-10T21:18:17.285Z,16.43
2023-05-10T21:22:33.630Z,16.38
2023-05-10T21:26:49.922Z,16.42
2023-05-10T21:31:06.789Z,16.32
2023-05-10T21:35:23.088Z,16.44
2023-05-10T21:39:39.342Z,16.44
2023-05-10T21:43:56.562Z,16.27
2023-05-10T21:48:13.591Z,16.36
2023-05-10T21:52:29.880Z,16.33
2023-05-10T21:56:46.222Z,16.30
2023-05-10T22:01:02.952Z,16.38
2023-05-10T22:05:21.612Z,16.38
2023-05-10T22:09:37.901Z,16.40
2023-05-10T22:13:54.374Z,16.22
2023-05-10T22:18:10.888Z,16.21
2023-05-10T22:22:27.250Z,16.27
2023-05-10T22:26:43.534Z,16.30
2023-05-10T22:30:59.944Z,15.97
2023-05-10T22:35:16.473Z,16.04
2023-05-10T22:39:33.540Z,15.90
2023-05-10T22:43:50.166Z,15.86
2023-05-10T22:48:08.839Z,15.96
2023-05-10T22:52:25.179Z,15.94
2023-05-10T22:56:41.660Z,15.98
2023-05-10T23:00:58.381Z,15.92
2023-05-10T23:05:14.772Z,15.93
2023-05-10T23:09:31.084Z,15.96
2023-05-10T23:13:47.551Z,16.06
2023-05-10T23:18:06.139Z,16.08
2023-05-10T23:22:22.450Z,15.94
2023-05-10T23:26:38.837Z,15.82
2023-05-10T23:30:58.818Z,15.66
2023-05-10T23:35:15.113Z,15.66
2023-05-10T23:39:31.347Z,15.94
2023-05-10T23:43:47.657Z,15.94
2023-05-10T23:48:04.052Z,15.63
2023-05-10T23:52:25.072Z,15.85
2023-05-10T23:56:41.542Z,15.70
